• Join FlightAware (Why Join?)
  • Login
  • US Flag 
12:01AM EDT


 

Airport Tracker/Info


-or-


 

Live Flight TrackerFlight Track Log ✈ DAL9933 ✈ 09-May-2013 ✈ KSAT - KATL

Flight Track Log - Related Links

Times and Time Zones

All times are in EDT time to prevent confusion due to time zone crossing. See the DAL9933 flight status page for this flight to view local times or setup timezone preferences in your user account.

Time Position Orientation Groundspeed Altitude Reporting Facility
EDT Latitude Longitude Course Direction KTS MPH feet Rate Location/Type
04:42PM 29.5247 -98.4636 130° Southeast 162 186 1,900  Level Houston Center
04:43PM 29.4958 -98.4239 130° Southeast 217 250 4,200 3,240 Climbing Houston Center
04:43PM 29.4592 -98.3683 127° Southeast 282 325 7,200 2,940 Climbing Houston Center
04:44PM 29.4317 -98.2758 109° East 325 374 9,900 1,200 Climbing Houston Center
04:46PM 29.5158 -98.2033 37° Northeast 313 360 10,000 720 Climbing Houston Center
04:47PM 29.5983 -98.1508 29° Northeast 317 365 11,600 1,500 Climbing Houston Center
04:48PM 29.6522 -98.0592 56° Northeast 370 426 13,100 2,220 Climbing Houston Center
04:49PM 29.6533 -97.9278 89° East 413 475 16,200 3,240 Climbing Houston Center
04:50PM 29.6531 -97.7978 90° East 411 473 19,900 3,120 Climbing Houston Center
04:51PM 29.6550 -97.6606 89° East 425 489 22,700 2,520 Climbing Houston Center
04:52PM 29.6564 -97.5167 89° East 444 511 25,200 2,340 Climbing Houston Center
04:53PM 29.6583 -97.3667 89° East 464 534 27,600 2,280 Climbing Houston Center
04:54PM 29.6589 -97.1789 90° East 484 557 30,000 1,860 Climbing Houston Center
04:55PM 29.6575 -97.0164 91° East 504 580 31,500 1,440 Climbing Houston Center
04:56PM 29.6322 -96.8456 100° East 534 615 33,000 1,560 Climbing Houston Center
04:57PM 29.6031 -96.6739 101° East 539 620 34,800 1,620 Climbing Houston Center
04:58PM 29.5825 -96.4983 98° East 547 629 36,400 1,380 Climbing Houston Center
04:59PM 29.5622 -96.3203 97° East 556 640 37,700 1,200 Climbing Houston Center
05:00PM 29.5497 -96.1386 94° East 569 655 38,900 600 Climbing Houston Center
05:01PM 29.5736 -95.9372 82° East 576 663 39,000  Climbing Houston Center
05:02PM 29.5961 -95.7542 82° East 580 667 39,000  Level Houston Center
05:03PM 29.6192 -95.5708 82° East 579 666 39,000  Level Houston Center
05:04PM 29.6428 -95.3869 82° East 581 669 39,000  Level Houston Center
05:05PM 29.6781 -95.1633 80° East 593 682 39,000  Level Houston Center
05:06PM 29.7178 -95.0067 74° East 585 673 39,000  Level Houston Center
05:07PM 29.7681 -94.7908 75° East 581 669 39,000  Level Houston Center
05:08PM 29.8092 -94.6117 75° East 580 667 39,000  Level Houston Center
05:10PM 29.8492 -94.4339 75° East 577 664 39,000  Level Houston Center
05:11PM 29.8878 -94.2550 76° East 576 663 39,000  Level Houston Center
05:12PM 29.9322 -94.0603 75° East 573 659 39,000  Level Houston Center
05:13PM 29.9719 -93.8833 75° East 572 658 39,000  Level Houston Center
05:14PM 30.0103 -93.7081 76° East 570 656 39,000  Level Houston Center
05:15PM 30.0478 -93.5322 76° East 571 657 39,000  Level Houston Center
05:16PM 30.0933 -93.3208 76° East 576 663 39,000  Level Houston Center
05:17PM 30.1319 -93.1431 76° East 579 666 39,000  Level Houston Center
05:18PM 30.1683 -92.9658 77° East 575 662 39,000  Level Houston Center
05:19PM 30.2025 -92.7892 77° East 568 654 39,000  Level Houston Center
05:20PM 30.2442 -92.5756 77° East 571 657 39,000  Level Houston Center
05:21PM 30.2778 -92.3997 77° East 565 650 39,000  Level Houston Center
05:22PM 30.3131 -92.2136 78° East 567 652 39,000  Level Houston Center
05:23PM 30.3469 -92.0394 77° East 562 647 39,000  Level Houston Center
05:24PM 30.3797 -91.8653 78° East 557 641 39,000  Level Houston Center
05:25PM 30.4144 -91.6747 78° East 555 639 39,000  Level Houston Center
05:26PM 30.4475 -91.5014 77° East 554 638 39,000  Level Houston Center
05:27PM 30.4797 -91.3294 78° East 547 629 39,000  Level Houston Center
05:28PM 30.5164 -91.1600 76° East 543 625 39,000  Level Houston Center
05:29PM 30.5539 -90.9911 76° East 541 623 39,000  Level Houston Center
05:30PM 30.6006 -90.7906 75° East 538 619 39,000  Level Houston Center
05:31PM 30.6383 -90.6233 75° East 535 616 39,000  Level Houston Center
05:32PM 30.6756 -90.4569 75° East 532 612 39,000  Level Houston Center
05:33PM 30.7131 -90.2894 75° East 532 612 39,000  Level Houston Center
05:34PM 30.7492 -90.1236 76° East 528 608 39,000  Level Houston Center
05:35PM 30.7861 -89.9553 76° East 531 611 39,000  Level Houston Center
05:36PM 30.8222 -89.7892 76° East 528 608 39,000  Level Houston Center
05:37PM 30.8717 -89.5936 74° East 524 603 39,000  Level Houston Center
05:39PM 30.9311 -89.4425 65° Northeast 513 590 39,000  Level Houston Center
05:40PM 30.9867 -89.2889 67° East 514 592 39,000  Level Houston Center
05:41PM 31.0383 -89.1331 69° East 514 592 39,000  Level Houston Center
05:42PM 31.0897 -88.9783 69° East 512 589 39,000  Level Houston Center
05:43PM 31.1464 -88.8128 68° East 506 582 39,000  Level Houston Center
05:44PM 31.1989 -88.6606 68° East 503 579 39,000  Level Houston Center
05:45PM 31.2508 -88.5092 68° East 499 574 39,000  Level Houston Center
05:46PM 31.3042 -88.3586 67° East 497 572 39,000  Level Houston Center
05:47PM 31.3636 -88.2019 66° East 488 562 39,000  Level Atlanta Center
05:48PM 31.4144 -88.0511 68° East 476 548 39,000  Level Atlanta Center
05:49PM 31.4772 -87.9125 62° Northeast 476 548 39,000  Level Atlanta Center
05:50PM 31.5542 -87.7844 55° Northeast 471 542 39,000  Level Atlanta Center
05:51PM 31.6289 -87.6558 56° Northeast 471 542 39,000 -300 Level Atlanta Center
05:52PM 31.7056 -87.5294 54° Northeast 476 548 38,400 -1,500 Descending Atlanta Center
05:53PM 31.7800 -87.4078 54° Northeast 470 541 36,100 -2,520 Descending Atlanta Center
05:54PM 31.8458 -87.2928 56° Northeast 465 535 33,400 -1,800 Descending Atlanta Center
05:55PM 31.9200 -87.1633 56° Northeast 465 535 32,600 -900 Descending Atlanta Center
05:56PM 32.0006 -87.0292 55° Northeast 477 549 31,700 -1,080 Descending Atlanta Center
05:57PM 32.0767 -86.8969 56° Northeast 489 563 30,500 -900 Descending Atlanta Center
05:58PM 32.1592 -86.7597 55° Northeast 499 574 29,900 -540 Descending Atlanta Center
05:59PM 32.2519 -86.6150 53° Northeast 499 574 29,500 -480 Descending Atlanta Center
06:00PM 32.3300 -86.4772 56° Northeast 499 574 29,000 -600 Descending Atlanta Center
06:01PM 32.3928 -86.3536 59° Northeast 499 574 28,400 -780 Descending Atlanta Center
06:02PM 32.4803 -86.2475 46° Northeast 479 551 27,500 -960 Descending Atlanta Center
06:03PM 32.5908 -86.1344 41° Northeast 467 537 26,500 -900 Descending Atlanta Center
06:04PM 32.6578 -86.0028 59° Northeast 467 537 25,700 -900 Descending Atlanta Center
06:05PM 32.7203 -85.8733 60° Northeast 456 525 24,800 -780 Descending Atlanta Center
06:06PM 32.7847 -85.7461 59° Northeast 451 519 24,200 -720 Descending Atlanta Center
06:07PM 32.8450 -85.6164 61° Northeast 439 505 23,400 -780 Descending Atlanta Center
06:08PM 32.9089 -85.4936 58° Northeast 439 505 22,700 -720 Descending Atlanta Center
06:09PM 32.9689 -85.3708 60° Northeast 434 499 22,000 -1,560 Descending Atlanta Center
06:10PM 33.0264 -85.2528 60° Northeast 427 491 19,600 -2,460 Descending Atlanta Center
06:11PM 33.0919 -85.1522 52° Northeast 403 464 17,100 -2,460 Descending Atlanta Center
06:12PM 33.1639 -85.0561 48° Northeast 384 442 14,700 -1,680 Descending Atlanta Center
06:13PM 33.2333 -84.9653 48° Northeast 370 426 13,800 -1,200 Descending Atlanta Center
06:14PM 33.3031 -84.8739 48° Northeast 365 420 12,300 -900 Descending Atlanta Center
06:15PM 33.3683 -84.7850 49° Northeast 365 420 12,000 -240 Descending Atlanta Center
06:15PM 33.4167 -84.7167 50° Northeast 365 420 12,000  Level Atlanta TRACON
06:16PM 33.4833 -84.6333 46° Northeast 353 406 12,000  Level Atlanta TRACON
06:17PM 33.5333 -84.5500 54° Northeast 283 326 12,000 -480 Level Atlanta TRACON
06:18PM 33.5333 -84.4833 90° East 268 308 11,100 -1,620 Descending Atlanta TRACON
06:19PM 33.5500 -84.3833 79° East 261 300 9,000 -1,980 Descending Atlanta TRACON
06:20PM 33.5500 -84.3167 90° East 236 272 7,200 -1,980 Descending Atlanta TRACON
06:21PM 33.5500 -84.2333 90° East 236 272 5,100 -1,980 Descending Atlanta TRACON
06:22PM 33.6167 -84.2167 12° North 225 259 3,100 -1,200 Descending Atlanta TRACON
06:23PM 33.6333 -84.2833 287° West 206 237 2,800 -480 Descending Atlanta TRACON
06:24PM 33.6333 -84.3500 270° West 166 191 2,200 -660 Descending Atlanta TRACON
06:25PM 33.6333 -84.3833 270° West 120 138 1,500 -720 Descending Atlanta TRACON
06:27PM 33.6333 -84.4167 301° West  Level FlightAware Approximate
06:34PM 33.6367 -84.4279 301° West  Level Estimated
06:35PM 33.6367 -84.4279 301° West  Level Estimated